Time,TemperatureF,DewpointF,PressureIn,WindDirection,WindDirectionDegrees,WindSpeedMPH,WindSpeedGustMPH,Humidity,HourlyPrecipIn,Conditions,Clouds,dailyrainin,SoftwareType,DateUTC
2013-09-27 00:00:00,77.7,71.4,29.81,NNE,25,2.0,11.0,81,0.00,,CLR,0.00,VWS V14.01,2013-09-27 04:00:00,
2013-09-27 00:01:00,75.8,69.9,29.81,North,4,0.0,4.0,82,0.00,,CLR,0.00,VWS V14.01,2013-09-27 04:01:00,
2013-09-27 00:02:00,75.8,69.9,29.81,North,4,0.0,4.0,82,0.00,,CLR,0.00,VWS V14.01,2013-09-27 04:02:00,
2013-09-27 00:07:00,75.6,69.7,29.81,North,6,0.0,5.0,82,0.00,,CLR,0.00,VWS V14.01,2013-09-27 04:07:00,
2013-09-27 00:12:00,75.4,69.9,29.81,NNE,31,2.0,5.0,83,0.00,,CLR,0.00,VWS V14.01,2013-09-27 04:12:00,
2013-09-27 00:17:00,75.4,69.9,29.82,North,0,0.0,8.0,83,0.00,,CLR,0.00,VWS V14.01,2013-09-27 04:17:00,
2013-09-27 00:22:00,75.3,69.8,29.82,NNE,20,0.0,8.0,83,0.00,,CLR,0.00,VWS V14.01,2013-09-27 04:22:00,
2013-09-27 00:27:00,75.1,69.6,29.82,North,8,0.0,8.0,83,0.00,,CLR,0.00,VWS V14.01,2013-09-27 04:27:00,
2013-09-27 00:30:00,76.7,70.4,29.81,NNE,23,6.0,11.0,81,0.00,,CLR,0.00,VWS V14.01,2013-09-27 04:30:00,
2013-09-27 00:32:00,75.1,69.6,29.81,NNE,16,1.0,6.0,83,0.00,,CLR,0.00,VWS V14.01,2013-09-27 04:32:00,
2013-09-27 00:37:00,74.9,69.4,29.81,NNE,23,0.0,8.0,83,0.00,,CLR,0.00,VWS V14.01,2013-09-27 04:37:00,
2013-09-27 00:42:00,74.7,69.2,29.81,NNE,14,0.0,8.0,83,0.00,,CLR,0.00,VWS V14.01,2013-09-27 04:42:00,
2013-09-27 00:47:00,74.7,69.2,29.81,NE,48,0.0,13.0,83,0.00,,CLR,0.00,VWS V14.01,2013-09-27 04:47:00,
2013-09-27 00:52:00,74.6,69.1,29.81,NE,38,0.0,13.0,83,0.00,,CLR,0.00,VWS V14.01,2013-09-27 04:52:00,
2013-09-27 00:57:00,74.6,68.8,29.81,NE,34,0.0,13.0,82,0.00,,CLR,0.00,VWS V14.01,2013-09-27 04:57:00,
2013-09-27 01:00:00,75.8,69.9,29.81,North,10,3.0,8.0,82,0.00,,CLR,0.00,VWS V14.01,2013-09-27 05:00:00,
2013-09-27 01:02:00,74.6,68.8,29.81,NE,54,0.0,6.0,82,0.00,,CLR,0.00,VWS V14.01,2013-09-27 05:02:00,
2013-09-27 01:08:00,74.6,68.8,29.81,NNE,23,0.0,8.0,82,0.00,,CLR,0.00,VWS V14.01,2013-09-27 05:08:00,
2013-09-27 01:13:00,74.4,68.6,29.81,NNE,30,0.0,8.0,82,0.00,,CLR,0.00,VWS V14.01,2013-09-27 05:13:00,
2013-09-27 01:18:00,74.4,68.9,29.81,NNE,32,0.0,8.0,83,0.00,,CLR,0.00,VWS V14.01,2013-09-27 05:18:00,
2013-09-27 01:23:00,74.2,68.7,29.81,NNE,30,0.0,8.0,83,0.00,,CLR,0.00,VWS V14.01,2013-09-27 05:23:00,
2013-09-27 01:28:00,74.2,68.7,29.81,NNE,27,2.0,8.0,83,0.00,,CLR,0.00,VWS V14.01,2013-09-27 05:28:00,
2013-09-27 01:30:00,75.1,69.6,29.81,North,8,0.0,8.0,83,0.00,,CLR,0.00,VWS V14.01,2013-09-27 05:30:00,
2013-09-27 01:33:00,74.0,68.9,29.81,NNE,27,0.0,2.0,84,0.00,,CLR,0.00,VWS V14.01,2013-09-27 05:33:00,
2013-09-27 01:38:00,74.0,68.9,29.81,NNE,25,0.0,2.0,84,0.00,,CLR,0.00,VWS V14.01,2013-09-27 05:38:00,
2013-09-27 01:43:00,73.9,69.1,29.81,NNE,25,0.0,2.0,85,0.00,,CLR,0.00,VWS V14.01,2013-09-27 05:43:00,
2013-09-27 01:48:00,73.7,68.9,29.82,NNE,25,0.0,2.0,85,0.00,,CLR,0.00,VWS V14.01,2013-09-27 05:48:00,
2013-09-27 01:53:00,73.5,69.1,29.82,NNE,25,1.0,2.0,86,0.00,,CLR,0.00,VWS V14.01,2013-09-27 05:53:00,
2013-09-27 01:58:00,73.3,68.9,29.82,NNE,25,0.0,2.0,86,0.00,,CLR,0.00,VWS V14.01,2013-09-27 05:58:00,
2013-09-27 02:00:00,74.6,69.1,29.81,NE,34,0.0,13.0,83,0.00,,CLR,0.00,VWS V14.01,2013-09-27 06:00:00,
2013-09-27 02:03:00,73.2,68.8,29.82,NNE,20,5.0,5.0,86,0.00,,CLR,0.00,VWS V14.01,2013-09-27 06:03:00,
2013-09-27 02:08:00,73.0,68.9,29.82,North,10,0.0,5.0,87,0.00,,CLR,0.00,VWS V14.01,2013-09-27 06:08:00,
2013-09-27 02:13:00,73.0,68.9,29.82,NNE,14,0.0,6.0,87,0.00,,CLR,0.00,VWS V14.01,2013-09-27 06:13:00,
2013-09-27 02:18:00,72.8,68.7,29.82,NNE,14,0.0,6.0,87,0.00,,CLR,0.00,VWS V14.01,2013-09-27 06:18:00,
2013-09-27 02:23:00,72.8,68.7,29.82,NNE,14,0.0,6.0,87,0.00,,CLR,0.00,VWS V14.01,2013-09-27 06:23:00,
2013-09-27 02:28:00,72.7,68.6,29.82,NNE,14,0.0,6.0,87,0.00,,CLR,0.00,VWS V14.01,2013-09-27 06:28:00,
2013-09-27 02:30:00,74.2,69.1,29.81,NNE,27,0.0,8.0,84,0.00,,CLR,0.00,VWS V14.01,2013-09-27 06:30:00,
2013-09-27 02:33:00,72.5,68.8,29.82,NNE,14,0.0,0.0,88,0.00,,CLR,0.00,VWS V14.01,2013-09-27 06:33:00,
2013-09-27 02:38:00,72.5,68.8,29.82,North,4,3.0,3.0,88,0.00,,CLR,0.00,VWS V14.01,2013-09-27 06:38:00,
2013-09-27 02:43:00,72.3,68.6,29.82,North,1,0.0,3.0,88,0.00,,CLR,0.00,VWS V14.01,2013-09-27 06:43:00,
2013-09-27 02:48:00,72.3,68.6,29.82,North,1,0.0,5.0,88,0.00,,CLR,0.00,VWS V14.01,2013-09-27 06:48:00,
2013-09-27 02:53:00,72.3,68.6,29.82,North,0,0.0,5.0,88,0.00,,CLR,0.00,VWS V14.01,2013-09-27 06:53:00,
2013-09-27 02:58:00,72.1,68.3,29.82,NNE,16,0.0,7.0,88,0.00,,CLR,0.00,VWS V14.01,2013-09-27 06:58:00,
2013-09-27 03:00:00,73.3,68.9,29.82,NNE,23,0.0,6.0,86,0.00,,CLR,0.00,VWS V14.01,2013-09-27 07:00:00,
2013-09-27 03:03:00,72.1,68.3,29.82,NNE,14,0.0,2.0,88,0.00,,FEW013,0.00,VWS V14.01,2013-09-27 07:03:00,
2013-09-27 03:08:00,72.1,68.7,29.82,NNE,14,0.0,3.0,89,0.00,,FEW013,0.00,VWS V14.01,2013-09-27 07:08:00,
2013-09-27 03:13:00,72.1,68.7,29.82,NNE,28,0.0,3.0,89,0.00,,FEW013,0.00,VWS V14.01,2013-09-27 07:13:00,
2013-09-27 03:18:00,72.0,68.6,29.82,NNE,21,0.0,5.0,89,0.00,,FEW013,0.00,VWS V14.01,2013-09-27 07:18:00,
2013-09-27 03:23:00,72.0,68.6,29.82,NNE,21,0.0,5.0,89,0.00,,FEW013,0.00,VWS V14.01,2013-09-27 07:23:00,
2013-09-27 03:28:00,72.0,68.9,29.82,North,1,0.0,5.0,90,0.00,,FEW013,0.00,VWS V14.01,2013-09-27 07:28:00,
2013-09-27 03:30:00,72.7,68.6,29.82,NNE,14,0.0,6.0,87,0.00,,CLR,0.00,VWS V14.01,2013-09-27 07:30:00,
2013-09-27 03:33:00,72.0,68.9,29.82,North,0,5.0,7.0,90,0.00,,FEW013,0.00,VWS V14.01,2013-09-27 07:33:00,
2013-09-27 03:38:00,71.8,68.4,29.82,North,0,0.0,8.0,89,0.00,,FEW013,0.00,VWS V14.01,2013-09-27 07:38:00,
2013-09-27 03:43:00,71.8,68.4,29.82,North,1,0.0,8.0,89,0.00,,FEW013,0.00,VWS V14.01,2013-09-27 07:43:00,
2013-09-27 03:48:00,71.6,68.2,29.82,North,3,1.0,8.0,89,0.00,,FEW013,0.00,VWS V14.01,2013-09-27 07:48:00,
2013-09-27 03:49:00,71.5,68.1,29.82,North,1,0.0,8.0,89,0.00,,FEW013,0.00,VWS V14.01,2013-09-27 07:49:00,
2013-09-27 03:54:00,71.5,68.1,29.82,North,1,0.0,8.0,89,0.00,,FEW013,0.00,VWS V14.01,2013-09-27 07:54:00,
2013-09-27 03:59:00,71.3,67.9,29.82,North,4,0.0,8.0,89,0.00,,FEW013,0.00,VWS V14.01,2013-09-27 07:59:00,
2013-09-27 04:00:00,72.1,68.3,29.82,NNE,16,0.0,7.0,88,0.00,,CLR,0.00,VWS V14.01,2013-09-27 08:00:00,
2013-09-27 04:04:00,71.3,68.2,29.82,North,6,3.0,6.0,90,0.00,,FEW012,0.00,VWS V14.01,2013-09-27 08:04:00,
2013-09-27 04:09:00,71.3,68.2,29.82,North,0,0.0,6.0,90,0.00,,FEW012,0.00,VWS V14.01,2013-09-27 08:09:00,
2013-09-27 04:14:00,71.3,68.2,29.82,North,0,0.0,6.0,90,0.00,,FEW012,0.00,VWS V14.01,2013-09-27 08:14:00,
2013-09-27 04:19:00,71.1,68.0,29.82,North,1,0.0,7.0,90,0.00,,FEW012,0.00,VWS V14.01,2013-09-27 08:19:00,
2013-09-27 04:24:00,71.1,68.0,29.82,North,0,0.0,7.0,90,0.00,,FEW012,0.00,VWS V14.01,2013-09-27 08:24:00,
2013-09-27 04:29:00,71.3,68.5,29.81,North,0,1.0,7.0,91,0.00,,FEW012,0.00,VWS V14.01,2013-09-27 08:29:00,
2013-09-27 04:30:00,72.0,68.9,29.82,North,3,0.0,5.0,90,0.00,,CLR,0.00,VWS V14.01,2013-09-27 08:30:00,
2013-09-27 04:34:00,71.1,68.0,29.81,NNE,17,4.0,7.0,90,0.00,,FEW012,0.00,VWS V14.01,2013-09-27 08:34:00,
2013-09-27 04:39:00,70.9,67.8,29.81,North,4,0.0,7.0,90,0.00,,FEW012,0.00,VWS V14.01,2013-09-27 08:39:00,
2013-09-27 04:44:00,70.8,67.7,29.81,North,7,0.0,7.0,90,0.00,,FEW012,0.00,VWS V14.01,2013-09-27 08:44:00,
2013-09-27 04:49:00,70.8,68.1,29.81,North,1,0.0,7.0,91,0.00,,FEW012,0.00,VWS V14.01,2013-09-27 08:49:00,
2013-09-27 04:54:00,70.8,68.1,29.81,North,1,0.0,7.0,91,0.00,,FEW012,0.00,VWS V14.01,2013-09-27 08:54:00,
2013-09-27 04:59:00,70.8,68.1,29.82,North,1,2.0,7.0,91,0.00,,FEW012,0.00,VWS V14.01,2013-09-27 08:59:00,
2013-09-27 05:00:00,71.3,67.9,29.82,North,4,0.0,8.0,89,0.00,,CLR,0.00,VWS V14.01,2013-09-27 09:00:00,
2013-09-27 05:04:00,70.8,68.1,29.82,North,6,1.0,6.0,91,0.00,,OVC037,0.00,VWS V14.01,2013-09-27 09:04:00,
2013-09-27 05:09:00,70.8,68.4,29.82,North,10,0.0,6.0,92,0.00,,OVC037,0.00,VWS V14.01,2013-09-27 09:09:00,
2013-09-27 05:14:00,70.8,68.1,29.82,North,7,0.0,7.0,91,0.00,,OVC037,0.00,VWS V14.01,2013-09-27 09:14:00,
2013-09-27 05:19:00,70.8,68.1,29.82,North,4,0.0,10.0,91,0.00,,OVC037,0.00,VWS V14.01,2013-09-27 09:19:00,
2013-09-27 05:24:00,70.8,68.1,29.82,North,0,3.0,10.0,91,0.00,,OVC037,0.00,VWS V14.01,2013-09-27 09:24:00,
2013-09-27 05:29:00,70.9,68.2,29.82,NNE,18,0.0,10.0,91,0.00,,OVC037,0.00,VWS V14.01,2013-09-27 09:29:00,
2013-09-27 05:30:00,71.3,68.5,29.81,North,0,0.0,7.0,91,0.00,,CLR,0.00,VWS V14.01,2013-09-27 09:30:00,
2013-09-27 05:34:00,70.8,68.1,29.82,North,3,1.0,5.0,91,0.00,,OVC037,0.00,VWS V14.01,2013-09-27 09:34:00,
2013-09-27 05:39:00,70.8,68.1,29.82,North,0,0.0,7.0,91,0.00,,OVC037,0.00,VWS V14.01,2013-09-27 09:39:00,
2013-09-27 05:44:00,70.6,67.8,29.82,North,1,0.0,7.0,91,0.00,,OVC037,0.00,VWS V14.01,2013-09-27 09:44:00,
2013-09-27 05:49:00,70.6,67.8,29.82,North,6,1.0,7.0,91,0.00,,OVC037,0.00,VWS V14.01,2013-09-27 09:49:00,
2013-09-27 05:54:00,70.6,67.8,29.82,North,6,0.0,7.0,91,0.00,,OVC037,0.00,VWS V14.01,2013-09-27 09:54:00,
2013-09-27 05:59:00,70.4,67.7,29.83,North,4,1.0,7.0,91,0.00,,OVC037,0.00,VWS V14.01,2013-09-27 09:59:00,
2013-09-27 06:00:00,70.8,68.1,29.82,North,1,0.0,7.0,91,0.00,,CLR,0.00,VWS V14.01,2013-09-27 10:00:00,
2013-09-27 06:04:00,70.4,67.7,29.83,NNE,30,0.0,7.0,91,0.00,,OVC037,0.00,VWS V14.01,2013-09-27 10:04:00,
2013-09-27 06:09:00,70.4,67.7,29.83,North,0,0.0,9.0,91,0.00,,OVC037,0.00,VWS V14.01,2013-09-27 10:09:00,
2013-09-27 06:14:00,70.6,67.8,29.84,NNE,16,5.0,10.0,91,0.00,,OVC037,0.00,VWS V14.01,2013-09-27 10:14:00,
2013-09-27 06:19:00,70.4,67.7,29.84,NNE,23,1.0,10.0,91,0.00,,OVC037,0.00,VWS V14.01,2013-09-27 10:19:00,
2013-09-27 06:24:00,70.4,67.7,29.84,ENE,65,0.0,10.0,91,0.00,,OVC037,0.00,VWS V14.01,2013-09-27 10:24:00,
2013-09-27 06:29:00,70.3,67.6,29.84,NE,42,3.0,10.0,91,0.00,,OVC037,0.00,VWS V14.01,2013-09-27 10:29:00,
2013-09-27 06:30:00,70.9,68.2,29.82,NNE,18,0.0,10.0,91,0.00,,CLR,0.00,VWS V14.01,2013-09-27 10:30:00,
2013-09-27 06:34:00,70.3,67.6,29.84,NE,35,1.0,5.0,91,0.00,,OVC037,0.00,VWS V14.01,2013-09-27 10:34:00,
2013-09-27 06:39:00,70.3,67.6,29.84,NE,34,0.0,5.0,91,0.00,,OVC037,0.00,VWS V14.01,2013-09-27 10:39:00,
2013-09-27 06:44:00,70.3,67.6,29.84,NNE,27,0.0,5.0,91,0.00,,OVC037,0.00,VWS V14.01,2013-09-27 10:44:00,
2013-09-27 06:49:00,70.3,67.9,29.84,NNE,25,0.0,5.0,92,0.00,,OVC037,0.00,VWS V14.01,2013-09-27 10:49:00,
2013-09-27 06:54:00,70.3,67.9,29.84,NNE,24,3.0,5.0,92,0.00,,OVC037,0.00,VWS V14.01,2013-09-27 10:54:00,
2013-09-27 06:59:00,70.3,67.9,29.85,NNE,21,0.0,5.0,92,0.00,,OVC037,0.00,VWS V14.01,2013-09-27 10:59:00,
2013-09-27 07:00:00,70.4,67.7,29.83,North,4,0.0,7.0,91,0.00,,CLR,0.00,VWS V14.01,2013-09-27 11:00:00,
2013-09-27 07:04:00,70.3,67.9,29.85,NNE,21,0.0,0.0,92,0.00,,BKN009,0.00,VWS V14.01,2013-09-27 11:04:00,
2013-09-27 07:09:00,70.3,67.9,29.85,NNE,21,0.0,2.0,92,0.00,,BKN009,0.00,VWS V14.01,2013-09-27 11:09:00,
2013-09-27 07:14:00,70.1,67.7,29.86,NNE,23,0.0,5.0,92,0.00,,BKN009,0.00,VWS V14.01,2013-09-27 11:14:00,
2013-09-27 07:19:00,70.1,67.7,29.86,NNE,24,0.0,5.0,92,0.00,,BKN009,0.00,VWS V14.01,2013-09-27 11:19:00,
2013-09-27 07:24:00,70.1,67.7,29.86,NNE,24,0.0,5.0,92,0.00,,BKN009,0.00,VWS V14.01,2013-09-27 11:24:00,
2013-09-27 07:29:00,70.1,67.7,29.86,NNE,20,5.0,5.0,92,0.00,,BKN009,0.00,VWS V14.01,2013-09-27 11:29:00,
2013-09-27 07:30:00,70.3,67.6,29.84,NE,42,1.0,10.0,91,0.00,,CLR,0.00,VWS V14.01,2013-09-27 11:30:00,
2013-09-27 07:34:00,70.1,67.7,29.86,NNE,17,0.0,3.0,92,0.00,,BKN009,0.00,VWS V14.01,2013-09-27 11:34:00,
2013-09-27 07:39:00,70.1,67.7,29.86,NNE,17,0.0,3.0,92,0.00,,BKN009,0.00,VWS V14.01,2013-09-27 11:39:00,
2013-09-27 07:44:00,70.1,67.7,29.86,NNE,17,0.0,3.0,92,0.00,,BKN009,0.00,VWS V14.01,2013-09-27 11:44:00,
2013-09-27 07:49:00,70.1,67.7,29.86,NNE,17,0.0,3.0,92,0.00,,BKN009,0.00,VWS V14.01,2013-09-27 11:49:00,
2013-09-27 07:54:00,70.3,67.9,29.86,NNE,17,0.0,3.0,92,0.00,,BKN009,0.00,VWS V14.01,2013-09-27 11:54:00,
2013-09-27 07:59:00,70.3,67.9,29.87,NNE,18,0.0,5.0,92,0.00,,BKN009,0.00,VWS V14.01,2013-09-27 11:59:00,
2013-09-27 08:00:00,70.3,67.9,29.85,NNE,21,0.0,5.0,92,0.00,,CLR,0.00,VWS V14.01,2013-09-27 12:00:00,
2013-09-27 08:04:00,70.3,67.9,29.87,NNE,18,0.0,0.0,92,0.00,,OVC009,0.00,VWS V14.01,2013-09-27 12:04:00,
2013-09-27 08:09:00,70.4,68.0,29.87,NNE,18,0.0,0.0,92,0.00,,OVC009,0.00,VWS V14.01,2013-09-27 12:09:00,
2013-09-27 08:14:00,70.6,68.2,29.87,NNE,18,0.0,0.0,92,0.00,,OVC009,0.00,VWS V14.01,2013-09-27 12:14:00,
2013-09-27 08:19:00,70.6,68.2,29.87,NNE,18,0.0,0.0,92,0.00,,OVC009,0.00,VWS V14.01,2013-09-27 12:19:00,
2013-09-27 08:24:00,70.8,68.4,29.87,NNE,18,0.0,0.0,92,0.00,,OVC009,0.00,VWS V14.01,2013-09-27 12:24:00,
2013-09-27 08:29:00,70.8,68.4,29.87,NNE,18,0.0,3.0,92,0.00,,OVC009,0.00,VWS V14.01,2013-09-27 12:29:00,
2013-09-27 08:30:00,70.1,67.7,29.86,NNE,20,1.0,5.0,92,0.00,,CLR,0.00,VWS V14.01,2013-09-27 12:30:00,
2013-09-27 08:34:00,70.9,68.2,29.87,NNE,18,0.0,3.0,91,0.00,,OVC009,0.00,VWS V14.01,2013-09-27 12:34:00,
2013-09-27 08:39:00,71.1,68.3,29.87,NNE,18,3.0,6.0,91,0.00,,OVC009,0.00,VWS V14.01,2013-09-27 12:39:00,
2013-09-27 08:44:00,71.1,68.3,29.88,NNE,18,0.0,6.0,91,0.00,,OVC009,0.00,VWS V14.01,2013-09-27 12:44:00,
2013-09-27 08:49:00,71.3,68.5,29.88,NNE,18,0.0,6.0,91,0.00,,OVC009,0.00,VWS V14.01,2013-09-27 12:49:00,
2013-09-27 08:54:00,71.5,68.7,29.88,NNE,18,0.0,6.0,91,0.00,,OVC009,0.00,VWS V14.01,2013-09-27 12:54:00,
2013-09-27 08:59:00,72.0,68.9,29.88,NNE,17,0.0,6.0,90,0.00,,OVC009,0.00,VWS V14.01,2013-09-27 12:59:00,
2013-09-27 09:00:00,70.3,67.9,29.87,NNE,18,0.0,5.0,92,0.00,,CLR,0.00,VWS V14.01,2013-09-27 13:00:00,
2013-09-27 09:04:00,72.5,69.1,29.88,NNE,17,0.0,0.0,89,0.00,,OVC009,0.00,VWS V14.01,2013-09-27 13:04:00,
2013-09-27 09:09:00,72.5,68.8,29.88,NNE,17,0.0,2.0,88,0.00,,OVC009,0.00,VWS V14.01,2013-09-27 13:09:00,
2013-09-27 09:14:00,72.5,68.8,29.88,NNE,17,0.0,2.0,88,0.00,,OVC009,0.00,VWS V14.01,2013-09-27 13:14:00,
2013-09-27 09:19:00,72.3,68.6,29.88,North,6,1.0,6.0,88,0.00,,OVC009,0.00,VWS V14.01,2013-09-27 13:19:00,
2013-09-27 09:24:00,72.1,68.3,29.88,North,0,0.0,7.0,88,0.00,,OVC009,0.00,VWS V14.01,2013-09-27 13:24:00,
2013-09-27 09:29:00,72.3,68.6,29.88,North,8,0.0,7.0,88,0.00,,OVC009,0.00,VWS V14.01,2013-09-27 13:29:00,
2013-09-27 09:30:00,70.8,68.4,29.87,NNE,18,0.0,3.0,92,0.00,,CLR,0.00,VWS V14.01,2013-09-27 13:30:00,
2013-09-27 09:34:00,72.8,69.0,29.88,North,4,0.0,3.0,88,0.00,,OVC009,0.00,VWS V14.01,2013-09-27 13:34:00,
2013-09-27 09:39:00,73.0,69.2,29.88,North,8,0.0,3.0,88,0.00,,OVC009,0.00,VWS V14.01,2013-09-27 13:39:00,
2013-09-27 09:44:00,73.0,68.9,29.89,North,7,0.0,3.0,87,0.00,,OVC009,0.00,VWS V14.01,2013-09-27 13:44:00,
2013-09-27 09:49:00,73.0,68.9,29.89,North,7,0.0,3.0,87,0.00,,OVC009,0.00,VWS V14.01,2013-09-27 13:49:00,
2013-09-27 09:54:00,72.8,68.7,29.89,North,0,0.0,6.0,87,0.00,,OVC009,0.00,VWS V14.01,2013-09-27 13:54:00,
2013-09-27 09:59:00,72.8,68.7,29.88,North,0,0.0,6.0,87,0.00,,OVC009,0.00,VWS V14.01,2013-09-27 13:59:00,
2013-09-27 10:00:00,72.0,68.9,29.88,NNE,17,0.0,6.0,90,0.00,,CLR,0.00,VWS V14.01,2013-09-27 14:00:00,
2013-09-27 10:04:00,72.8,68.7,29.88,North,0,0.0,3.0,87,0.00,,OVC006,0.00,VWS V14.01,2013-09-27 14:04:00,
2013-09-27 10:09:00,73.0,68.9,29.88,North,0,0.0,3.0,87,0.00,,OVC006,0.00,VWS V14.01,2013-09-27 14:09:00,
2013-09-27 10:14:00,73.5,69.4,29.88,North,0,0.0,5.0,87,0.00,,OVC006,0.00,VWS V14.01,2013-09-27 14:14:00,
2013-09-27 10:19:00,74.0,69.9,29.88,North,0,4.0,5.0,87,0.00,,OVC006,0.00,VWS V14.01,2013-09-27 14:19:00,
2013-09-27 10:24:00,74.2,69.8,29.88,North,0,0.0,5.0,86,0.00,,OVC006,0.00,VWS V14.01,2013-09-27 14:24:00,
2013-09-27 10:29:00,74.7,69.9,29.88,North,0,0.0,5.0,85,0.00,,OVC006,0.00,VWS V14.01,2013-09-27 14:29:00,
2013-09-27 10:30:00,72.3,68.6,29.88,North,8,0.0,7.0,88,0.00,,CLR,0.00,VWS V14.01,2013-09-27 14:30:00,
2013-09-27 10:34:00,74.9,69.7,29.88,North,0,0.0,2.0,84,0.00,,OVC006,0.00,VWS V14.01,2013-09-27 14:34:00,
2013-09-27 10:39:00,75.1,69.9,29.88,North,356,0.0,5.0,84,0.00,,OVC006,0.00,VWS V14.01,2013-09-27 14:39:00,
2013-09-27 10:44:00,75.3,70.1,29.89,North,356,0.0,5.0,84,0.00,,OVC006,0.00,VWS V14.01,2013-09-27 14:44:00,
2013-09-27 10:49:00,75.4,70.2,29.89,North,356,0.0,5.0,84,0.00,,OVC006,0.00,VWS V14.01,2013-09-27 14:49:00,
2013-09-27 10:54:00,76.0,70.5,29.89,North,356,0.0,5.0,83,0.00,,OVC006,0.00,VWS V14.01,2013-09-27 14:54:00,
2013-09-27 10:59:00,76.1,70.2,29.88,North,0,0.0,7.0,82,0.00,,OVC006,0.00,VWS V14.01,2013-09-27 14:59:00,
2013-09-27 11:00:00,72.8,68.7,29.88,North,0,2.0,6.0,87,0.00,,CLR,0.00,VWS V14.01,2013-09-27 15:00:00,
2013-09-27 11:04:00,76.3,70.8,29.88,North,0,0.0,3.0,83,0.00,,OVC008,0.00,VWS V14.01,2013-09-27 15:04:00,
2013-09-27 11:09:00,76.5,70.2,29.88,North,353,1.0,6.0,81,0.00,,OVC008,0.00,VWS V14.01,2013-09-27 15:09:00,
2013-09-27 11:14:00,77.0,70.4,29.88,North,0,2.0,6.0,80,0.00,,OVC008,0.00,VWS V14.01,2013-09-27 15:14:00,
2013-09-27 11:19:00,77.0,70.4,29.88,North,0,0.0,9.0,80,0.00,,OVC008,0.00,VWS V14.01,2013-09-27 15:19:00,
2013-09-27 11:24:00,77.2,70.6,29.88,North,0,0.0,9.0,80,0.00,,OVC008,0.00,VWS V14.01,2013-09-27 15:24:00,
2013-09-27 11:29:00,77.2,70.2,29.88,North,354,5.0,9.0,79,0.00,,OVC008,0.00,VWS V14.01,2013-09-27 15:29:00,
2013-09-27 11:30:00,74.7,69.9,29.88,North,0,0.0,5.0,85,0.00,,CLR,0.00,VWS V14.01,2013-09-27 15:30:00,
2013-09-27 11:34:00,77.4,70.8,29.88,North,0,0.0,2.0,80,0.00,,OVC008,0.00,VWS V14.01,2013-09-27 15:34:00,
2013-09-27 11:39:00,77.9,70.9,29.88,NNE,25,0.0,7.0,79,0.00,,OVC008,0.00,VWS V14.01,2013-09-27 15:39:00,
2013-09-27 11:44:00,78.5,71.4,29.88,North,0,0.0,7.0,79,0.00,,OVC008,0.00,VWS V14.01,2013-09-27 15:44:00,
2013-09-27 11:49:00,78.8,70.6,29.88,North,356,0.0,7.0,76,0.00,,OVC008,0.00,VWS V14.01,2013-09-27 15:49:00,
2013-09-27 11:54:00,79.0,71.2,29.88,North,0,0.0,8.0,77,0.00,,OVC008,0.00,VWS V14.01,2013-09-27 15:54:00,
2013-09-27 11:59:00,78.6,70.8,29.88,North,7,0.0,8.0,77,0.00,,OVC008,0.00,VWS V14.01,2013-09-27 15:59:00,
2013-09-27 12:00:00,76.1,70.2,29.88,North,0,0.0,7.0,82,0.00,,CLR,0.00,VWS V14.01,2013-09-27 16:00:00,
2013-09-27 12:04:00,78.3,70.5,29.88,North,7,2.0,5.0,77,0.00,,OVC008,0.00,VWS V14.01,2013-09-27 16:04:00,
2013-09-27 12:09:00,78.3,70.5,29.88,NNE,16,0.0,5.0,77,0.00,,OVC008,0.00,VWS V14.01,2013-09-27 16:09:00,
2013-09-27 12:14:00,78.8,71.0,29.88,NNE,27,6.0,7.0,77,0.00,,OVC008,0.00,VWS V14.01,2013-09-27 16:14:00,
2013-09-27 12:19:00,79.2,71.0,29.88,NE,38,0.0,7.0,76,0.00,,OVC008,0.00,VWS V14.01,2013-09-27 16:19:00,
2013-09-27 12:24:00,79.8,71.6,29.88,NE,35,0.0,7.0,76,0.00,,OVC008,0.00,VWS V14.01,2013-09-27 16:24:00,
2013-09-27 12:29:00,80.7,72.0,29.87,NE,35,0.0,7.0,75,0.00,,OVC008,0.00,VWS V14.01,2013-09-27 16:29:00,
2013-09-27 12:30:00,77.2,70.2,29.88,North,354,0.0,9.0,79,0.00,,CLR,0.00,VWS V14.01,2013-09-27 16:30:00,
2013-09-27 12:34:00,81.1,71.2,29.87,NNE,32,0.0,5.0,72,0.00,,OVC008,0.00,VWS V14.01,2013-09-27 16:34:00,
2013-09-27 12:39:00,80.5,71.5,29.87,North,0,6.0,6.0,74,0.00,,OVC008,0.00,VWS V14.01,2013-09-27 16:39:00,
2013-09-27 12:44:00,80.3,71.7,29.87,North,359,1.0,6.0,75,0.00,,OVC008,0.00,VWS V14.01,2013-09-27 16:44:00,
2013-09-27 12:49:00,80.5,71.8,29.87,North,356,0.0,6.0,75,0.00,,OVC008,0.00,VWS V14.01,2013-09-27 16:49:00,
2013-09-27 12:54:00,80.7,71.2,29.87,North,353,1.0,6.0,73,0.00,,OVC008,0.00,VWS V14.01,2013-09-27 16:54:00,
2013-09-27 12:59:00,80.3,71.3,29.86,NNW,335,0.0,6.0,74,0.00,,OVC008,0.00,VWS V14.01,2013-09-27 16:59:00,
2013-09-27 13:00:00,78.5,70.7,29.88,North,7,0.0,8.0,77,0.00,,CLR,0.00,VWS V14.01,2013-09-27 17:00:00,
2013-09-27 13:04:00,80.5,71.5,29.86,NNW,335,0.0,2.0,74,0.00,,BKN012,0.00,VWS V14.01,2013-09-27 17:04:00,
2013-09-27 13:09:00,81.2,71.3,29.86,NNW,344,0.0,5.0,72,0.00,,BKN012,0.00,VWS V14.01,2013-09-27 17:09:00,
2013-09-27 13:14:00,81.8,71.9,29.86,NNW,346,0.0,5.0,72,0.00,,BKN012,0.00,VWS V14.01,2013-09-27 17:14:00,
2013-09-27 13:19:00,81.8,71.9,29.86,NNW,343,0.0,5.0,72,0.00,,BKN012,0.00,VWS V14.01,2013-09-27 17:19:00,
2013-09-27 13:24:00,82.0,71.3,29.86,NNW,344,0.0,5.0,70,0.00,,BKN012,0.00,VWS V14.01,2013-09-27 17:24:00,
2013-09-27 13:26:00,82.0,71.7,29.86,NNW,333,0.0,6.0,71,0.00,,BKN012,0.00,VWS V14.01,2013-09-27 17:26:00,
2013-09-27 13:30:00,80.9,72.2,29.87,NE,35,0.0,7.0,75,0.00,,CLR,0.00,VWS V14.01,2013-09-27 17:30:00,
2013-09-27 13:31:00,82.4,73.3,29.85,NNW,333,1.0,2.0,74,0.00,,BKN012,0.00,VWS V14.01,2013-09-27 17:31:00,
2013-09-27 13:36:00,81.8,72.7,29.85,NW,316,2.0,8.0,74,0.00,,BKN012,0.00,VWS V14.01,2013-09-27 17:36:00,
2013-09-27 13:41:00,81.2,72.9,29.85,NW,312,0.0,8.0,76,0.00,,BKN012,0.00,VWS V14.01,2013-09-27 17:41:00,
2013-09-27 13:46:00,81.1,72.8,29.85,NW,320,1.0,8.0,76,0.00,,BKN012,0.00,VWS V14.01,2013-09-27 17:46:00,
2013-09-27 13:51:00,80.9,73.0,29.85,NW,313,2.0,8.0,77,0.00,,BKN012,0.00,VWS V14.01,2013-09-27 17:51:00,
2013-09-27 13:56:00,80.7,72.4,29.85,NW,306,0.0,8.0,76,0.00,,BKN012,0.00,VWS V14.01,2013-09-27 17:56:00,
2013-09-27 14:00:00,80.3,71.3,29.86,NNW,335,0.0,6.0,74,0.00,,CLR,0.00,VWS V14.01,2013-09-27 18:00:00,
2013-09-27 14:01:00,80.9,72.6,29.85,NW,316,1.0,3.0,76,0.00,,SCT012,0.00,VWS V14.01,2013-09-27 18:01:00,
2013-09-27 14:06:00,80.9,72.6,29.85,NW,306,0.0,3.0,76,0.00,,SCT012,0.00,VWS V14.01,2013-09-27 18:06:00,
2013-09-27 14:11:00,80.9,72.6,29.85,NNW,330,2.0,6.0,76,0.00,,SCT012,0.00,VWS V14.01,2013-09-27 18:11:00,
2013-09-27 14:16:00,80.9,73.0,29.84,NW,306,0.0,6.0,77,0.00,,SCT012,0.00,VWS V14.01,2013-09-27 18:16:00,
2013-09-27 14:21:00,81.2,72.9,29.84,NNW,339,0.0,6.0,76,0.00,,SCT012,0.00,VWS V14.01,2013-09-27 18:21:00,
2013-09-27 14:26:00,81.2,72.9,29.84,North,350,1.0,6.0,76,0.00,,SCT012,0.00,VWS V14.01,2013-09-27 18:26:00,
2013-09-27 14:30:00,82.4,73.3,29.85,NNW,332,0.0,6.0,74,0.00,,CLR,0.00,VWS V14.01,2013-09-27 18:30:00,
2013-09-27 14:31:00,81.4,73.1,29.83,NW,319,0.0,10.0,76,0.00,,SCT012,0.00,VWS V14.01,2013-09-27 18:31:00,
2013-09-27 14:36:00,81.4,73.1,29.83,WNW,301,0.0,10.0,76,0.00,,SCT012,0.00,VWS V14.01,2013-09-27 18:36:00,
2013-09-27 14:41:00,81.6,73.3,29.83,NW,320,1.0,10.0,76,0.00,,SCT012,0.00,VWS V14.01,2013-09-27 18:41:00,
2013-09-27 14:46:00,81.6,72.9,29.83,NW,316,0.0,10.0,75,0.00,,SCT012,0.00,VWS V14.01,2013-09-27 18:46:00,
2013-09-27 14:51:00,81.8,72.7,29.83,NW,318,10.0,10.0,74,0.00,,SCT012,0.00,VWS V14.01,2013-09-27 18:51:00,
2013-09-27 14:56:00,81.6,73.3,29.83,NNW,328,1.0,10.0,76,0.00,,SCT012,0.00,VWS V14.01,2013-09-27 18:56:00,
2013-09-27 15:00:00,80.9,72.6,29.85,NW,311,0.0,8.0,76,0.00,,CLR,0.00,VWS V14.01,2013-09-27 19:00:00,
2013-09-27 15:01:00,81.8,73.1,29.82,WNW,298,0.0,7.0,75,0.00,,SCT012,0.00,VWS V14.01,2013-09-27 19:01:00,
2013-09-27 15:06:00,81.8,73.1,29.82,North,0,2.0,8.0,75,0.00,,SCT012,0.00,VWS V14.01,2013-09-27 19:06:00,
2013-09-27 15:11:00,82.0,72.9,29.82,NNW,337,0.0,8.0,74,0.00,,SCT012,0.00,VWS V14.01,2013-09-27 19:11:00,
2013-09-27 15:16:00,82.0,72.9,29.82,NW,319,1.0,9.0,74,0.00,,SCT012,0.00,VWS V14.01,2013-09-27 19:16:00,
2013-09-27 15:21:00,82.0,72.9,29.82,NNW,333,0.0,9.0,74,0.00,,SCT012,0.00,VWS V14.01,2013-09-27 19:21:00,
2013-09-27 15:26:00,82.2,72.7,29.82,NW,320,0.0,10.0,73,0.00,,SCT012,0.00,VWS V14.01,2013-09-27 19:26:00,
2013-09-27 15:30:00,81.4,73.1,29.83,North,352,0.0,6.0,76,0.00,,CLR,0.00,VWS V14.01,2013-09-27 19:30:00,
2013-09-27 15:31:00,82.2,72.7,29.82,NNW,347,3.0,12.0,73,0.00,,SCT012,0.00,VWS V14.01,2013-09-27 19:31:00,
2013-09-27 15:36:00,82.2,72.7,29.82,North,1,1.0,12.0,73,0.00,,SCT012,0.00,VWS V14.01,2013-09-27 19:36:00,
2013-09-27 15:41:00,81.8,72.3,29.82,NNW,330,0.0,12.0,73,0.00,,SCT012,0.00,VWS V14.01,2013-09-27 19:41:00,
2013-09-27 15:46:00,81.4,71.9,29.81,NNW,339,7.0,12.0,73,0.00,,SCT012,0.00,VWS V14.01,2013-09-27 19:46:00,
2013-09-27 15:51:00,81.2,71.7,29.81,NNW,339,0.0,12.0,73,0.00,,SCT012,0.00,VWS V14.01,2013-09-27 19:51:00,
2013-09-27 15:56:00,81.2,71.7,29.81,WNW,291,10.0,12.0,73,0.00,,SCT012,0.00,VWS V14.01,2013-09-27 19:56:00,
2013-09-27 16:00:00,81.8,73.5,29.82,NW,323,2.0,10.0,76,0.00,,CLR,0.00,VWS V14.01,2013-09-27 20:00:00,
2013-09-27 16:01:00,81.6,72.1,29.81,WNW,302,1.0,6.0,73,0.00,,CLR,0.00,VWS V14.01,2013-09-27 20:01:00,
2013-09-27 16:06:00,81.8,72.3,29.81,NW,312,0.0,11.0,73,0.00,,CLR,0.00,VWS V14.01,2013-09-27 20:06:00,
2013-09-27 16:11:00,82.0,72.1,29.81,NNW,340,0.0,13.0,72,0.00,,CLR,0.00,VWS V14.01,2013-09-27 20:11:00,
2013-09-27 16:16:00,81.6,72.1,29.81,North,349,3.0,13.0,73,0.00,,CLR,0.00,VWS V14.01,2013-09-27 20:16:00,
2013-09-27 16:21:00,81.1,71.6,29.81,North,352,7.0,13.0,73,0.00,,CLR,0.00,VWS V14.01,2013-09-27 20:21:00,
2013-09-27 16:26:00,80.9,72.2,29.81,NNW,339,3.0,13.0,75,0.00,,CLR,0.00,VWS V14.01,2013-09-27 20:26:00,
2013-09-27 16:30:00,82.2,72.7,29.82,North,352,0.0,10.0,73,0.00,,CLR,0.00,VWS V14.01,2013-09-27 20:30:00,
2013-09-27 16:31:00,80.7,71.7,29.81,NW,318,3.0,14.0,74,0.00,,CLR,0.00,VWS V14.01,2013-09-27 20:31:00,
2013-09-27 16:36:00,80.7,71.7,29.81,North,349,0.0,14.0,74,0.00,,CLR,0.00,VWS V14.01,2013-09-27 20:36:00,
2013-09-27 16:41:00,80.9,71.4,29.81,NW,319,5.0,14.0,73,0.00,,CLR,0.00,VWS V14.01,2013-09-27 20:41:00,
2013-09-27 16:46:00,81.4,71.5,29.81,NW,322,2.0,14.0,72,0.00,,CLR,0.00,VWS V14.01,2013-09-27 20:46:00,
2013-09-27 16:51:00,81.8,71.9,29.81,North,350,3.0,14.0,72,0.00,,CLR,0.00,VWS V14.01,2013-09-27 20:51:00,
2013-09-27 16:56:00,81.4,71.1,29.81,NNW,347,0.0,14.0,71,0.00,,CLR,0.00,VWS V14.01,2013-09-27 20:56:00,
2013-09-27 17:00:00,81.4,71.9,29.81,NNW,346,0.0,12.0,73,0.00,,CLR,0.00,VWS V14.01,2013-09-27 21:00:00,
2013-09-27 17:01:00,81.1,72.0,29.81,North,354,6.0,6.0,74,0.00,,SCT060,0.00,VWS V14.01,2013-09-27 21:01:00,
2013-09-27 17:06:00,80.9,71.8,29.81,NNW,340,8.0,16.0,74,0.00,,SCT060,0.00,VWS V14.01,2013-09-27 21:06:00,
2013-09-27 17:11:00,81.4,72.3,29.81,NNW,337,0.0,16.0,74,0.00,,SCT060,0.00,VWS V14.01,2013-09-27 21:11:00,
2013-09-27 17:16:00,81.2,71.7,29.81,North,11,0.0,16.0,73,0.00,,SCT060,0.00,VWS V14.01,2013-09-27 21:16:00,
2013-09-27 17:21:00,81.1,71.2,29.81,North,0,5.0,16.0,72,0.00,,SCT060,0.00,VWS V14.01,2013-09-27 21:21:00,
2013-09-27 17:26:00,81.1,71.6,29.81,North,357,8.0,16.0,73,0.00,,SCT060,0.00,VWS V14.01,2013-09-27 21:26:00,
2013-09-27 17:30:00,80.7,71.2,29.81,NNW,339,0.0,13.0,73,0.00,,CLR,0.00,VWS V14.01,2013-09-27 21:30:00,
2013-09-27 17:31:00,81.1,72.0,29.81,North,0,0.0,12.0,74,0.00,,SCT060,0.00,VWS V14.01,2013-09-27 21:31:00,
2013-09-27 17:36:00,80.9,71.4,29.81,North,0,0.0,12.0,73,0.00,,SCT060,0.00,VWS V14.01,2013-09-27 21:36:00,
2013-09-27 17:41:00,80.7,71.7,29.81,North,0,2.0,12.0,74,0.00,,SCT060,0.00,VWS V14.01,2013-09-27 21:41:00,
2013-09-27 17:46:00,80.7,68.7,29.82,North,0,0.0,12.0,67,0.00,,SCT060,0.00,VWS V14.01,2013-09-27 21:46:00,
2013-09-27 17:51:00,80.7,67.8,29.82,NNE,32,0.0,12.0,65,0.00,,SCT060,0.00,VWS V14.01,2013-09-27 21:51:00,
2013-09-27 17:56:00,80.7,67.4,29.82,North,349,0.0,12.0,64,0.00,,SCT060,0.00,VWS V14.01,2013-09-27 21:56:00,
2013-09-27 18:00:00,81.2,72.1,29.81,South,181,1.0,14.0,74,0.00,,CLR,0.00,VWS V14.01,2013-09-27 22:00:00,
2013-09-27 18:01:00,80.7,67.8,29.82,NNE,30,3.0,3.0,65,0.00,,BKN040,0.00,VWS V14.01,2013-09-27 22:01:00,
2013-09-27 18:06:00,80.7,67.4,29.82,NNE,25,2.0,11.0,64,0.00,,BKN040,0.00,VWS V14.01,2013-09-27 22:06:00,
2013-09-27 18:11:00,80.7,67.4,29.82,NE,35,2.0,11.0,64,0.00,,BKN040,0.00,VWS V14.01,2013-09-27 22:11:00,
2013-09-27 18:16:00,80.5,67.7,29.83,NE,56,3.0,11.0,65,0.00,,BKN040,0.00,VWS V14.01,2013-09-27 22:16:00,
2013-09-27 18:21:00,80.5,67.2,29.83,ENE,65,4.0,11.0,64,0.00,,BKN040,0.00,VWS V14.01,2013-09-27 22:21:00,
2013-09-27 18:26:00,80.7,67.8,29.83,NE,40,0.0,11.0,65,0.00,,BKN040,0.00,VWS V14.01,2013-09-27 22:26:00,
2013-09-27 18:30:00,81.1,72.0,29.81,North,357,1.0,16.0,74,0.00,,CLR,0.00,VWS V14.01,2013-09-27 22:30:00,
2013-09-27 18:31:00,80.9,68.0,29.83,NE,51,3.0,11.0,65,0.00,,BKN040,0.00,VWS V14.01,2013-09-27 22:31:00,
2013-09-27 18:36:00,80.9,67.6,29.83,NE,44,0.0,11.0,64,0.00,,BKN040,0.00,VWS V14.01,2013-09-27 22:36:00,
2013-09-27 18:41:00,80.9,67.6,29.83,NE,42,5.0,11.0,64,0.00,,BKN040,0.00,VWS V14.01,2013-09-27 22:41:00,
2013-09-27 18:46:00,80.9,67.6,29.83,NE,54,2.0,11.0,64,0.00,,BKN040,0.00,VWS V14.01,2013-09-27 22:46:00,
2013-09-27 18:51:00,80.7,67.4,29.83,NE,41,2.0,11.0,64,0.00,,BKN040,0.00,VWS V14.01,2013-09-27 22:51:00,
2013-09-27 18:57:00,80.5,67.7,29.83,NE,47,0.0,11.0,65,0.00,,BKN040,0.00,VWS V14.01,2013-09-27 22:57:00,
2013-09-27 19:00:00,80.7,67.8,29.82,NNE,14,0.0,12.0,65,0.00,,CLR,0.00,VWS V14.01,2013-09-27 23:00:00,
2013-09-27 19:01:00,80.5,68.1,29.84,NE,45,0.0,0.0,66,0.00,,BKN060,0.00,VWS V14.01,2013-09-27 23:01:00,
2013-09-27 19:07:00,80.3,68.3,29.84,NE,45,0.0,0.0,67,0.00,,BKN060,0.00,VWS V14.01,2013-09-27 23:07:00,
2013-09-27 19:12:00,80.3,68.3,29.84,NE,45,0.0,1.0,67,0.00,,BKN060,0.00,VWS V14.01,2013-09-27 23:12:00,
2013-09-27 19:17:00,80.1,68.6,29.84,NE,45,1.0,2.0,68,0.00,,BKN060,0.00,VWS V14.01,2013-09-27 23:17:00,
2013-09-27 19:22:00,79.9,68.4,29.84,NE,45,0.0,2.0,68,0.00,,BKN060,0.00,VWS V14.01,2013-09-27 23:22:00,
2013-09-27 19:27:00,79.9,68.4,29.84,NE,48,0.0,2.0,68,0.00,,BKN060,0.00,VWS V14.01,2013-09-27 23:27:00,
2013-09-27 19:30:00,80.7,67.8,29.83,NE,44,2.0,11.0,65,0.00,,CLR,0.00,VWS V14.01,2013-09-27 23:30:00,
2013-09-27 19:32:00,79.8,68.7,29.84,NE,48,0.0,0.0,69,0.00,,BKN060,0.00,VWS V14.01,2013-09-27 23:32:00,
2013-09-27 19:37:00,79.8,68.7,29.84,NE,38,0.0,2.0,69,0.00,,BKN060,0.00,VWS V14.01,2013-09-27 23:37:00,
2013-09-27 19:42:00,79.8,68.7,29.84,NE,38,0.0,2.0,69,0.00,,BKN060,0.00,VWS V14.01,2013-09-27 23:42:00,
2013-09-27 19:47:00,79.6,69.0,29.84,NE,38,0.0,2.0,70,0.00,,BKN060,0.00,VWS V14.01,2013-09-27 23:47:00,
2013-09-27 19:52:00,79.6,69.0,29.84,NE,38,0.0,2.0,70,0.00,,BKN060,0.00,VWS V14.01,2013-09-27 23:52:00,
2013-09-27 19:57:00,79.6,69.0,29.84,NE,38,0.0,2.0,70,0.00,,BKN060,0.00,VWS V14.01,2013-09-27 23:57:00,
2013-09-27 20:00:00,80.5,67.7,29.84,NE,45,0.0,11.0,65,0.00,,CLR,0.00,VWS V14.01,2013-09-28 00:00:00,
2013-09-27 20:02:00,79.6,69.0,29.85,NE,38,0.0,0.0,70,0.00,,OVC060,0.00,VWS V14.01,2013-09-28 00:02:00,
2013-09-27 20:07:00,79.4,69.2,29.85,NE,38,0.0,0.0,71,0.00,,OVC060,0.00,VWS V14.01,2013-09-28 00:07:00,
2013-09-27 20:12:00,79.4,69.2,29.85,NE,38,0.0,0.0,71,0.00,,OVC060,0.00,VWS V14.01,2013-09-28 00:12:00,
2013-09-27 20:17:00,79.4,69.2,29.85,NE,38,0.0,0.0,71,0.00,,OVC060,0.00,VWS V14.01,2013-09-28 00:17:00,
2013-09-27 20:22:00,79.4,69.6,29.85,NE,38,0.0,0.0,72,0.00,,OVC060,0.00,VWS V14.01,2013-09-28 00:22:00,
2013-09-27 20:27:00,79.2,69.4,29.85,NE,38,0.0,0.0,72,0.00,,OVC060,0.00,VWS V14.01,2013-09-28 00:27:00,
2013-09-27 20:30:00,79.8,68.7,29.84,NE,48,0.0,2.0,69,0.00,,CLR,0.00,VWS V14.01,2013-09-28 00:30:00,
2013-09-27 20:32:00,79.2,69.4,29.85,NE,38,0.0,0.0,72,0.00,,OVC060,0.00,VWS V14.01,2013-09-28 00:32:00,
2013-09-27 20:37:00,79.0,69.2,29.85,NE,38,0.0,0.0,72,0.00,,OVC060,0.00,VWS V14.01,2013-09-28 00:37:00,
2013-09-27 20:42:00,79.0,69.6,29.85,NE,38,0.0,0.0,73,0.00,,OVC060,0.00,VWS V14.01,2013-09-28 00:42:00,
2013-09-27 20:47:00,78.8,69.4,29.86,NE,38,0.0,0.0,73,0.00,,OVC060,0.00,VWS V14.01,2013-09-28 00:47:00,
2013-09-27 20:52:00,78.8,69.4,29.86,NE,38,0.0,0.0,73,0.00,,OVC060,0.00,VWS V14.01,2013-09-28 00:52:00,
2013-09-27 20:57:00,78.8,69.4,29.86,NE,37,0.0,2.0,73,0.00,,OVC060,0.00,VWS V14.01,2013-09-28 00:57:00,
2013-09-27 21:00:00,79.6,69.0,29.85,NE,38,0.0,2.0,70,0.00,,CLR,0.00,VWS V14.01,2013-09-28 01:00:00,
2013-09-27 21:02:00,78.8,69.4,29.87,NE,38,0.0,0.0,73,0.00,,OVC065,0.00,VWS V14.01,2013-09-28 01:02:00,
2013-09-27 21:07:00,78.6,69.2,29.87,NE,38,0.0,2.0,73,0.00,,OVC065,0.00,VWS V14.01,2013-09-28 01:07:00,
2013-09-27 21:12:00,78.6,69.6,29.87,NE,38,0.0,2.0,74,0.00,,OVC065,0.00,VWS V14.01,2013-09-28 01:12:00,
2013-09-27 21:17:00,78.6,69.6,29.87,NE,38,0.0,2.0,74,0.00,,OVC065,0.00,VWS V14.01,2013-09-28 01:17:00,
2013-09-27 21:22:00,78.5,69.5,29.87,NE,38,0.0,2.0,74,0.00,,OVC065,0.00,VWS V14.01,2013-09-28 01:22:00,
2013-09-27 21:27:00,78.5,69.5,29.87,NE,38,0.0,2.0,74,0.00,,OVC065,0.00,VWS V14.01,2013-09-28 01:27:00,
2013-09-27 21:30:00,79.2,69.4,29.85,NE,38,0.0,0.0,72,0.00,,CLR,0.00,VWS V14.01,2013-09-28 01:30:00,
2013-09-27 21:32:00,78.5,69.5,29.88,NE,38,0.0,1.0,74,0.00,,OVC065,0.00,VWS V14.01,2013-09-28 01:32:00,
2013-09-27 21:37:00,78.5,69.9,29.88,NE,38,0.0,1.0,75,0.00,,OVC065,0.00,VWS V14.01,2013-09-28 01:37:00,
2013-09-27 21:42:00,78.5,69.9,29.88,NE,38,0.0,1.0,75,0.00,,OVC065,0.00,VWS V14.01,2013-09-28 01:42:00,
2013-09-27 21:47:00,78.5,69.9,29.88,NE,40,0.0,2.0,75,0.00,,OVC065,0.00,VWS V14.01,2013-09-28 01:47:00,
2013-09-27 21:52:00,78.5,69.9,29.88,NE,38,0.0,2.0,75,0.00,,OVC065,0.00,VWS V14.01,2013-09-28 01:52:00,
2013-09-27 21:57:00,78.6,70.0,29.88,NE,37,0.0,5.0,75,0.00,,OVC065,0.00,VWS V14.01,2013-09-28 01:57:00,
2013-09-27 22:00:00,78.8,69.4,29.87,NE,38,0.0,2.0,73,0.00,,CLR,0.00,VWS V14.01,2013-09-28 02:00:00,
2013-09-27 22:02:00,78.6,70.4,29.89,NNE,17,1.0,1.0,76,0.00,,OVC065,0.00,VWS V14.01,2013-09-28 02:02:00,
2013-09-27 22:07:00,78.5,70.3,29.89,NNE,28,0.0,5.0,76,0.00,,OVC065,0.00,VWS V14.01,2013-09-28 02:07:00,
2013-09-27 22:12:00,78.3,70.1,29.89,NE,35,0.0,7.0,76,0.00,,OVC065,0.00,VWS V14.01,2013-09-28 02:12:00,
2013-09-27 22:17:00,77.9,70.1,29.90,NNW,343,2.0,11.0,77,0.00,,OVC065,0.00,VWS V14.01,2013-09-28 02:17:00,
2013-09-27 22:22:00,77.6,70.2,29.90,NE,40,0.0,11.0,78,0.00,,OVC065,0.00,VWS V14.01,2013-09-28 02:22:00,
2013-09-27 22:27:00,77.2,69.8,29.90,NE,42,1.0,11.0,78,0.00,,OVC065,0.00,VWS V14.01,2013-09-28 02:27:00,
2013-09-27 22:30:00,78.5,69.5,29.88,NE,38,0.0,2.0,74,0.00,,CLR,0.00,VWS V14.01,2013-09-28 02:30:00,
2013-09-27 22:32:00,77.2,69.8,29.90,NE,48,0.0,7.0,78,0.00,,OVC065,0.00,VWS V14.01,2013-09-28 02:32:00,
2013-09-27 22:37:00,77.0,69.2,29.90,ENE,75,0.0,7.0,77,0.00,,OVC065,0.00,VWS V14.01,2013-09-28 02:37:00,
2013-09-27 22:42:00,77.0,69.2,29.90,NE,44,0.0,7.0,77,0.00,,OVC065,0.00,VWS V14.01,2013-09-28 02:42:00,
2013-09-27 22:47:00,77.0,69.2,29.90,NE,41,0.0,12.0,77,0.00,,OVC065,0.00,VWS V14.01,2013-09-28 02:47:00,
2013-09-27 22:52:00,77.0,69.2,29.90,NE,38,7.0,12.0,77,0.00,,OVC065,0.00,VWS V14.01,2013-09-28 02:52:00,
2013-09-27 22:58:00,76.8,69.1,29.90,NNE,30,0.0,12.0,77,0.00,,OVC065,0.00,VWS V14.01,2013-09-28 02:58:00,
2013-09-27 23:00:00,78.6,70.0,29.89,NNE,23,0.0,5.0,75,0.00,,CLR,0.00,VWS V14.01,2013-09-28 03:00:00,
2013-09-27 23:03:00,76.8,69.4,29.90,NE,38,1.0,5.0,78,0.00,,OVC043,0.00,VWS V14.01,2013-09-28 03:03:00,
2013-09-27 23:08:00,76.7,69.7,29.90,NE,34,0.0,10.0,79,0.00,,OVC043,0.00,VWS V14.01,2013-09-28 03:08:00,
2013-09-27 23:13:00,76.5,69.5,29.90,NE,44,0.0,10.0,79,0.00,,OVC043,0.00,VWS V14.01,2013-09-28 03:13:00,
2013-09-27 23:18:00,76.3,69.7,29.90,NE,45,0.0,10.0,80,0.00,,OVC043,0.00,VWS V14.01,2013-09-28 03:18:00,
2013-09-27 23:23:00,76.1,69.5,29.90,NNE,23,0.0,10.0,80,0.00,,OVC043,0.00,VWS V14.01,2013-09-28 03:23:00,
2013-09-27 23:28:00,76.0,69.8,29.90,NE,37,0.0,10.0,81,0.00,,OVC043,0.00,VWS V14.01,2013-09-28 03:28:00,
2013-09-27 23:30:00,77.2,69.8,29.90,NE,42,0.0,11.0,78,0.00,,CLR,0.00,VWS V14.01,2013-09-28 03:30:00,
2013-09-27 23:33:00,75.8,69.6,29.90,NE,37,0.0,2.0,81,0.00,,OVC043,0.00,VWS V14.01,2013-09-28 03:33:00,
2013-09-27 23:38:00,75.8,69.9,29.90,NE,37,0.0,3.0,82,0.00,,OVC043,0.00,VWS V14.01,2013-09-28 03:38:00,
2013-09-27 23:43:00,75.6,69.7,29.90,NE,41,1.0,5.0,82,0.00,,OVC043,0.00,VWS V14.01,2013-09-28 03:43:00,
2013-09-27 23:48:00,75.4,69.9,29.90,NE,34,0.0,7.0,83,0.00,,OVC043,0.00,VWS V14.01,2013-09-28 03:48:00,
2013-09-27 23:53:00,75.4,69.9,29.90,NE,34,0.0,7.0,83,0.00,,OVC043,0.00,VWS V14.01,2013-09-28 03:53:00,
2013-09-27 23:58:00,75.3,70.1,29.90,NE,34,0.0,7.0,84,0.00,,OVC043,0.00,VWS V14.01,2013-09-28 03:58:00,